createdAt,value
2018-01-27T00:02:06.952Z,26.83
2018-01-27T00:04:33.964Z,27.30
2018-01-27T00:07:00.248Z,24.17
2018-01-27T00:09:26.536Z,25.57
2018-01-27T00:11:52.812Z,26.80
2018-01-27T00:14:19.099Z,26.10
2018-01-27T00:16:45.613Z,27.57
2018-01-27T00:19:11.992Z,26.70
2018-01-27T00:21:39.088Z,23.57
2018-01-27T00:24:05.399Z,23.87
2018-01-27T00:26:31.768Z,26.73
2018-01-27T00:28:58.104Z,29.90
2018-01-27T00:31:24.475Z,25.07
2018-01-27T00:33:50.784Z,27.67
2018-01-27T00:36:17.883Z,28.50
2018-01-27T00:38:44.156Z,29.60
2018-01-27T00:41:10.447Z,30.13
2018-01-27T00:43:36.767Z,28.27
2018-01-27T00:46:03.138Z,28.90
2018-01-27T00:48:29.468Z,29.60
2018-01-27T00:50:55.851Z,30.43
2018-01-27T00:53:22.267Z,30.23
2018-01-27T00:55:48.707Z,29.00
2018-01-27T00:58:15.167Z,29.37
2018-01-27T01:00:41.572Z,29.70
2018-01-27T01:03:07.876Z,29.43
2018-01-27T01:05:34.911Z,29.13
2018-01-27T01:08:01.287Z,28.10
2018-01-27T01:10:27.596Z,26.50
2018-01-27T01:12:54.699Z,28.10
2018-01-27T01:15:21.339Z,28.60
2018-01-27T01:17:47.671Z,27.80
2018-01-27T01:20:14.001Z,28.43
2018-01-27T01:22:40.361Z,27.97
2018-01-27T01:25:07.408Z,29.03
2018-01-27T01:27:33.782Z,30.73
2018-01-27T01:30:00.108Z,28.47
2018-01-27T01:32:26.456Z,27.13
2018-01-27T01:34:52.813Z,26.30
2018-01-27T01:37:19.151Z,27.63
2018-01-27T01:39:45.680Z,27.83
2018-01-27T01:42:18.093Z,25.60
2018-01-27T01:44:44.407Z,26.13
2018-01-27T01:47:13.537Z,26.03
2018-01-27T01:49:39.863Z,26.87
2018-01-27T01:52:06.141Z,28.50
2018-01-27T01:54:32.460Z,25.20
2018-01-27T01:56:58.825Z,27.30
2018-01-27T01:59:25.868Z,26.17
2018-01-27T02:01:52.885Z,24.47
2018-01-27T02:04:19.195Z,23.57
2018-01-27T02:06:45.755Z,26.10
2018-01-27T02:09:12.057Z,27.03
2018-01-27T02:11:38.407Z,27.10
2018-01-27T02:14:04.772Z,27.50
2018-01-27T02:16:31.100Z,25.93
2018-01-27T02:18:57.483Z,25.47
2018-01-27T02:21:23.835Z,25.07
2018-01-27T02:23:50.147Z,26.20
2018-01-27T02:26:16.416Z,27.50
2018-01-27T02:28:42.727Z,25.67
2018-01-27T02:31:10.132Z,25.80
2018-01-27T02:33:37.180Z,25.80
2018-01-27T02:36:03.464Z,26.40
2018-01-27T02:38:29.763Z,24.40
2018-01-27T02:40:56.123Z,22.70
2018-01-27T02:43:22.451Z,26.37
2018-01-27T02:45:48.804Z,24.00
2018-01-27T02:48:15.404Z,25.50
2018-01-27T02:50:41.790Z,26.50
2018-01-27T02:53:08.904Z,24.73
2018-01-27T02:55:35.303Z,25.87
2018-01-27T02:58:01.667Z,24.87
2018-01-27T03:00:27.936Z,26.80
2018-01-27T03:02:55.045Z,24.90
2018-01-27T03:05:23.203Z,26.00
2018-01-27T03:07:49.592Z,24.80
2018-01-27T03:10:16.643Z,24.80
2018-01-27T03:12:43.708Z,25.70
2018-01-27T03:15:10.041Z,25.47
2018-01-27T03:17:36.416Z,24.90
2018-01-27T03:20:02.829Z,25.50
2018-01-27T03:22:29.172Z,25.60
2018-01-27T03:24:55.531Z,24.70
2018-01-27T03:27:22.575Z,26.10
2018-01-27T03:29:48.949Z,25.43
2018-01-27T03:32:15.279Z,24.97
2018-01-27T03:34:41.637Z,26.20
2018-01-27T03:37:08.664Z,25.60
2018-01-27T03:39:35.044Z,26.93
2018-01-27T03:42:01.332Z,25.00
2018-01-27T03:44:27.729Z,25.90
2018-01-27T03:46:54.867Z,25.27
2018-01-27T03:49:21.943Z,24.93
2018-01-27T03:51:48.201Z,25.73
2018-01-27T03:54:14.563Z,25.37
2018-01-27T03:56:40.868Z,26.87
2018-01-27T03:59:07.223Z,25.97
2018-01-27T04:01:33.547Z,26.67
2018-01-27T04:04:00.651Z,26.00
2018-01-27T04:06:26.951Z,26.13
2018-01-27T04:08:54.047Z,25.93
2018-01-27T04:11:20.380Z,24.87
2018-01-27T04:13:46.964Z,24.93
2018-01-27T04:16:13.979Z,25.20
2018-01-27T04:18:40.347Z,24.17
2018-01-27T04:21:07.384Z,24.90
2018-01-27T04:23:34.464Z,23.73
2018-01-27T04:26:00.727Z,25.00
2018-01-27T04:28:27.076Z,25.40
2018-01-27T04:30:53.387Z,25.97
2018-01-27T04:33:19.756Z,24.37
2018-01-27T04:35:46.849Z,25.60
2018-01-27T04:38:13.163Z,25.60
2018-01-27T04:40:39.499Z,23.80
2018-01-27T04:43:05.853Z,24.43
2018-01-27T04:45:32.200Z,24.30
2018-01-27T04:47:58.560Z,24.53
2018-01-27T04:50:25.572Z,24.33
2018-01-27T04:52:51.827Z,25.50
2018-01-27T04:55:18.130Z,26.80
2018-01-27T04:57:44.399Z,25.27
2018-01-27T05:00:11.443Z,25.10
2018-01-27T05:02:38.482Z,24.53
2018-01-27T05:05:04.801Z,26.27
2018-01-27T05:07:31.071Z,24.77
2018-01-27T05:09:57.367Z,24.90
2018-01-27T05:12:23.631Z,22.60
2018-01-27T05:14:49.908Z,24.40
2018-01-27T05:17:16.168Z,25.47
2018-01-27T05:19:43.203Z,23.97
2018-01-27T05:22:09.464Z,26.73
2018-01-27T05:24:35.824Z,25.93
2018-01-27T05:27:02.087Z,26.67
2018-01-27T05:29:28.363Z,27.57
2018-01-27T05:31:54.628Z,26.37
2018-01-27T05:34:20.904Z,26.03
2018-01-27T05:36:47.171Z,25.87
2018-01-27T05:39:13.475Z,25.47
2018-01-27T05:41:39.809Z,26.07
2018-01-27T05:44:06.096Z,24.53
2018-01-27T05:46:32.354Z,26.80
2018-01-27T05:48:58.639Z,24.80
2018-01-27T05:51:24.903Z,25.73
2018-01-27T05:53:51.935Z,24.87
2018-01-27T05:56:18.200Z,23.63
2018-01-27T05:58:44.516Z,23.70
2018-01-27T06:01:10.857Z,23.40
2018-01-27T06:03:37.168Z,23.87
2018-01-27T06:06:04.191Z,25.00
2018-01-27T06:08:30.504Z,24.23
2018-01-27T06:10:56.779Z,23.40
2018-01-27T06:13:23.866Z,22.70
2018-01-27T06:15:50.159Z,22.63
2018-01-27T06:18:17.219Z,25.17
2018-01-27T06:20:43.512Z,26.00
2018-01-27T06:23:09.812Z,24.00
2018-01-27T06:25:36.090Z,24.00
2018-01-27T06:28:03.114Z,23.90
2018-01-27T06:30:29.383Z,24.87
2018-01-27T06:32:55.676Z,24.00
2018-01-27T06:35:21.927Z,25.80
2018-01-27T06:37:48.972Z,23.60
2018-01-27T06:40:15.980Z,23.10
2018-01-27T06:42:42.263Z,22.03
2018-01-27T06:45:08.547Z,22.77
2018-01-27T06:47:34.807Z,21.90
2018-01-27T06:50:01.829Z,22.70
2018-01-27T06:52:28.087Z,21.80
2018-01-27T06:54:55.144Z,20.90
2018-01-27T06:57:21.397Z,21.50
2018-01-27T06:59:47.692Z,22.03
2018-01-27T07:02:13.954Z,22.50
2018-01-27T07:04:40.235Z,21.77
2018-01-27T07:07:07.248Z,20.83
2018-01-27T07:09:33.523Z,22.40
2018-01-27T07:12:00.537Z,22.07
2018-01-27T07:14:26.819Z,21.73
2018-01-27T07:16:53.080Z,22.40
2018-01-27T07:19:19.372Z,23.20
2018-01-27T07:21:45.627Z,21.50
2018-01-27T07:24:11.935Z,20.67
2018-01-27T07:26:38.316Z,21.80
2018-01-27T07:29:04.660Z,20.83
2018-01-27T07:31:30.923Z,20.97
2018-01-27T07:33:57.236Z,22.30
2018-01-27T07:36:24.311Z,21.10
2018-01-27T07:38:50.867Z,19.27
2018-01-27T07:41:17.208Z,22.17
2018-01-27T07:43:43.573Z,23.07
2018-01-27T07:46:10.724Z,22.97
2018-01-27T07:48:37.756Z,22.50
2018-01-27T07:51:04.099Z,22.10
2018-01-27T07:53:30.466Z,22.27
2018-01-27T07:55:56.803Z,23.40
2018-01-27T07:58:23.176Z,24.70
2018-01-27T08:00:49.460Z,23.73
2018-01-27T08:03:16.228Z,24.63
2018-01-27T08:05:42.655Z,23.67
2018-01-27T08:08:08.940Z,24.30
2018-01-27T08:10:36.032Z,23.57
2018-01-27T08:13:02.432Z,26.70
2018-01-27T08:15:28.734Z,22.93
2018-01-27T08:17:55.061Z,25.67
2018-01-27T08:20:21.355Z,24.93
2018-01-27T08:22:47.751Z,27.60
2018-01-27T08:25:14.028Z,25.20
2018-01-27T08:27:40.420Z,27.07
2018-01-27T08:30:06.796Z,23.97
2018-01-27T08:32:33.151Z,24.40
2018-01-27T08:34:59.453Z,25.40
2018-01-27T08:37:25.800Z,25.20
2018-01-27T08:39:52.151Z,23.93
2018-01-27T08:42:22.959Z,25.23
2018-01-27T08:44:49.956Z,25.90
2018-01-27T08:47:17.012Z,25.67
2018-01-27T08:49:43.327Z,23.87
2018-01-27T08:52:09.593Z,25.50
2018-01-27T08:54:35.960Z,24.27
2018-01-27T08:57:02.300Z,24.17
2018-01-27T08:59:29.455Z,23.07
2018-01-27T09:01:55.738Z,26.33
2018-01-27T09:04:22.912Z,25.20
2018-01-27T09:06:49.188Z,27.00
2018-01-27T09:09:15.472Z,27.10
2018-01-27T09:11:41.871Z,26.20
2018-01-27T09:14:08.569Z,26.40
2018-01-27T09:16:35.655Z,26.87
2018-01-27T09:19:02.049Z,24.90
2018-01-27T09:21:29.128Z,25.53
2018-01-27T09:23:55.479Z,26.43
2018-01-27T09:26:21.811Z,23.03
2018-01-27T09:28:48.179Z,24.53
2018-01-27T09:31:14.447Z,25.10
2018-01-27T09:33:40.776Z,23.50
2018-01-27T09:36:07.080Z,26.97
2018-01-27T09:38:34.126Z,24.30
2018-01-27T09:41:01.233Z,25.10
2018-01-27T09:43:27.603Z,25.20
2018-01-27T09:45:54.703Z,24.20
2018-01-27T09:48:21.084Z,24.23
2018-01-27T09:50:48.096Z,26.13
2018-01-27T09:53:14.396Z,25.20
2018-01-27T09:55:40.669Z,24.77
2018-01-27T09:58:06.952Z,24.50
2018-01-27T10:00:33.228Z,23.90
2018-01-27T10:02:59.523Z,23.10
2018-01-27T10:05:25.799Z,24.93
2018-01-27T10:07:52.091Z,27.03
2018-01-27T10:10:18.360Z,23.70
2018-01-27T10:12:45.404Z,21.40
2018-01-27T10:15:11.668Z,22.70
2018-01-27T10:17:37.944Z,23.77
2018-01-27T10:20:04.212Z,23.67
2018-01-27T10:22:31.288Z,23.40
2018-01-27T10:24:57.540Z,23.50
2018-01-27T10:27:23.844Z,22.87
2018-01-27T10:29:50.108Z,21.90
2018-01-27T10:32:16.414Z,22.87
2018-01-27T10:34:42.672Z,22.73
2018-01-27T10:37:09.004Z,24.60
2018-01-27T10:39:35.258Z,20.80
2018-01-27T10:42:02.305Z,22.80
2018-01-27T10:44:29.373Z,22.87
2018-01-27T10:46:55.664Z,23.33
2018-01-27T10:49:21.983Z,24.60
2018-01-27T10:51:48.300Z,24.63
2018-01-27T10:54:14.644Z,24.27
2018-01-27T10:56:40.963Z,24.83
2018-01-27T10:59:07.258Z,24.43
2018-01-27T11:01:33.543Z,23.03
2018-01-27T11:03:59.839Z,23.53
2018-01-27T11:06:26.103Z,24.03
2018-01-27T11:08:53.146Z,24.63
2018-01-27T11:11:19.427Z,23.70
2018-01-27T11:13:45.725Z,25.37
2018-01-27T11:16:12.772Z,24.80
2018-01-27T11:18:39.796Z,25.57
2018-01-27T11:21:06.105Z,23.03
2018-01-27T11:23:32.417Z,24.20
2018-01-27T11:25:58.684Z,22.53
2018-01-27T11:28:25.076Z,26.00
2018-01-27T11:30:51.405Z,24.60
2018-01-27T11:33:17.720Z,26.00
2018-01-27T11:35:44.003Z,23.07
2018-01-27T11:38:10.272Z,27.03
2018-01-27T11:40:37.304Z,31.77
2018-01-27T11:43:04.343Z,23.43
2018-01-27T11:45:30.608Z,26.90
2018-01-27T11:47:56.928Z,31.70
2018-01-27T11:50:23.967Z,26.97
2018-01-27T11:52:50.995Z,25.00
2018-01-27T11:55:17.256Z,29.03
2018-01-27T11:57:43.565Z,28.83
2018-01-27T12:00:10.584Z,24.37
2018-01-27T12:02:36.895Z,26.80
2018-01-27T12:05:03.192Z,26.20
2018-01-27T12:07:29.473Z,26.63
2018-01-27T12:09:55.735Z,26.40
2018-01-27T12:12:22.750Z,24.93
2018-01-27T12:14:49.020Z,23.57
2018-01-27T12:17:15.335Z,26.97
2018-01-27T12:19:42.352Z,27.20
2018-01-27T12:22:08.664Z,26.90
2018-01-27T12:24:34.923Z,30.23
2018-01-27T12:27:01.192Z,30.37
2018-01-27T12:29:27.484Z,25.33
2018-01-27T12:31:53.772Z,29.40
2018-01-27T12:34:20.040Z,21.20
2018-01-27T12:36:46.324Z,22.73
2018-01-27T12:39:12.608Z,24.47
2018-01-27T12:41:38.916Z,23.93
2018-01-27T12:44:05.173Z,23.07
2018-01-27T12:46:31.452Z,22.87
2018-01-27T12:48:57.724Z,23.83
2018-01-27T12:51:23.983Z,23.40
2018-01-27T12:53:50.275Z,22.40
2018-01-27T12:56:16.535Z,22.70
2018-01-27T12:58:43.575Z,19.63
2018-01-27T13:01:10.580Z,18.77
2018-01-27T13:03:36.856Z,19.50
2018-01-27T13:06:03.893Z,21.40
2018-01-27T13:08:30.932Z,17.17
2018-01-27T13:10:57.192Z,17.03
2018-01-27T13:13:23.584Z,19.33
2018-01-27T13:15:49.912Z,17.80
2018-01-27T13:18:16.523Z,20.23
2018-01-27T13:20:42.923Z,19.70
2018-01-27T13:23:09.279Z,20.10
2018-01-27T13:25:35.548Z,20.27
2018-01-27T13:28:01.845Z,19.17
2018-01-27T13:30:28.112Z,17.43
2018-01-27T13:32:54.413Z,19.17
2018-01-27T13:35:20.685Z,17.63
2018-01-27T13:37:47.739Z,18.70
2018-01-27T13:40:14.776Z,17.50
2018-01-27T13:42:41.815Z,21.10
2018-01-27T13:45:08.098Z,18.47
2018-01-27T13:47:34.363Z,20.27
2018-01-27T13:50:00.660Z,17.53
2018-01-27T13:52:26.965Z,19.80
2018-01-27T13:54:53.272Z,20.57
2018-01-27T13:57:20.316Z,19.10
2018-01-27T13:59:47.344Z,18.87
2018-01-27T14:02:13.776Z,19.53
2018-01-27T14:04:40.056Z,19.67
2018-01-27T14:07:06.328Z,20.63
2018-01-27T14:09:32.641Z,23.03
2018-01-27T14:11:58.940Z,21.33
2018-01-27T14:14:25.248Z,20.40
2018-01-27T14:16:52.271Z,21.23
2018-01-27T14:19:18.563Z,18.40
2018-01-27T14:21:44.835Z,20.27
2018-01-27T14:24:11.152Z,19.20
2018-01-27T14:26:37.423Z,19.30
2018-01-27T14:29:04.491Z,18.60
2018-01-27T14:31:30.768Z,21.13
2018-01-27T14:33:57.049Z,19.33
2018-01-27T14:36:35.533Z,23.20
2018-01-27T14:39:02.625Z,21.93
2018-01-27T14:41:28.920Z,17.60
2018-01-27T14:43:56.024Z,19.63
2018-01-27T14:46:22.286Z,17.63
2018-01-27T14:48:48.556Z,18.57
2018-01-27T14:51:15.039Z,18.03
2018-01-27T14:53:41.448Z,18.53
2018-01-27T14:56:07.808Z,19.63
2018-01-27T14:58:34.244Z,20.53
2018-01-27T15:01:00.612Z,19.67
2018-01-27T15:03:26.968Z,20.80
2018-01-27T15:05:53.279Z,17.97
2018-01-27T15:08:19.587Z,18.93
2018-01-27T15:10:46.644Z,18.40
2018-01-27T15:13:12.964Z,19.77
2018-01-27T15:15:39.971Z,20.03
2018-01-27T15:18:06.243Z,19.47
2018-01-27T15:20:33.276Z,18.03
2018-01-27T15:23:00.361Z,18.03
2018-01-27T15:25:26.656Z,20.70
2018-01-27T15:27:53.663Z,18.40
2018-01-27T15:30:20.116Z,18.93
2018-01-27T15:32:46.396Z,21.00
2018-01-27T15:35:12.671Z,19.17
2018-01-27T15:37:39.005Z,18.63
2018-01-27T15:40:05.298Z,16.80
2018-01-27T15:42:31.620Z,18.03
2018-01-27T15:44:57.904Z,19.03
2018-01-27T15:47:24.171Z,19.07
2018-01-27T15:49:50.478Z,18.90
2018-01-27T15:52:16.759Z,17.70
2018-01-27T15:54:43.060Z,18.97
2018-01-27T15:57:09.325Z,19.63
2018-01-27T15:59:35.624Z,20.50
2018-01-27T16:02:01.919Z,20.37
2018-01-27T16:04:28.940Z,20.60
2018-01-27T16:06:55.216Z,19.80
2018-01-27T16:09:21.515Z,20.97
2018-01-27T16:11:47.776Z,20.37
2018-01-27T16:14:14.129Z,20.70
2018-01-27T16:16:40.652Z,19.03
2018-01-27T16:19:07.007Z,21.57
2018-01-27T16:21:33.320Z,23.77
2018-01-27T16:23:59.721Z,22.10
2018-01-27T16:26:26.805Z,32.03
2018-01-27T16:28:53.144Z,21.03
2018-01-27T17:14:59.524Z,25.30
2018-01-27T17:17:26.616Z,27.57
2018-01-27T17:19:52.903Z,38.87
2018-01-27T17:22:19.280Z,34.77
2018-01-27T17:24:45.659Z,30.47
2018-01-27T17:27:11.931Z,32.90
2018-01-27T17:29:39.037Z,29.67
2018-01-27T17:32:05.297Z,29.03
2018-01-27T17:34:32.431Z,29.20
2018-01-27T17:36:58.759Z,26.73
2018-01-27T17:39:25.188Z,30.67
2018-01-27T17:41:58.388Z,29.00
2018-01-27T17:44:24.680Z,29.57
2018-01-27T17:46:50.940Z,30.27
2018-01-27T17:49:17.238Z,33.13
2018-01-27T17:51:43.503Z,30.77
2018-01-27T17:54:09.833Z,32.30
2018-01-27T17:56:36.099Z,31.63
2018-01-27T17:59:02.384Z,28.37
2018-01-27T18:01:28.711Z,28.20
2018-01-27T18:03:55.778Z,29.77
2018-01-27T18:06:22.044Z,26.23
2018-01-27T18:08:48.352Z,27.83
2018-01-27T18:11:15.373Z,27.77
2018-01-27T18:13:41.700Z,27.27
2018-01-27T18:16:08.712Z,26.30
2018-01-27T18:18:34.994Z,23.20
2018-01-27T18:21:01.289Z,25.20
2018-01-27T18:23:27.583Z,25.27
2018-01-27T18:25:53.872Z,26.60
2018-01-27T18:28:20.156Z,29.93
2018-01-27T18:30:46.473Z,22.40
2018-01-27T18:33:12.759Z,24.60
2018-01-27T18:35:39.047Z,26.70
2018-01-27T18:38:05.324Z,20.30
2018-01-27T18:40:31.633Z,24.43
2018-01-27T18:42:57.936Z,20.13
2018-01-27T18:45:24.261Z,21.60
2018-01-27T18:47:50.547Z,23.23
2018-01-27T18:50:16.845Z,23.70
2018-01-27T18:52:43.119Z,20.80
2018-01-27T18:55:10.155Z,22.10
2018-01-27T18:57:36.435Z,22.23
2018-01-27T19:00:02.771Z,20.67
2018-01-27T19:02:29.056Z,17.00
2018-01-27T19:04:56.077Z,21.10
2018-01-27T19:07:22.347Z,18.47
2018-01-27T19:09:49.384Z,20.13
2018-01-27T19:12:16.415Z,17.80
2018-01-27T19:14:42.717Z,17.10
2018-01-27T19:17:09.725Z,15.73
2018-01-27T19:19:36.007Z,19.67
2018-01-27T19:22:02.280Z,18.87
2018-01-27T19:24:43.530Z,17.60
2018-01-27T19:27:09.788Z,19.67
2018-01-27T19:29:36.067Z,16.20
2018-01-27T19:32:02.350Z,14.93
2018-01-27T19:34:28.720Z,15.20
2018-01-27T19:36:54.980Z,15.50
2018-01-27T19:39:21.263Z,16.73
2018-01-27T19:41:47.583Z,15.60
2018-01-27T19:44:28.816Z,15.00
2018-01-27T19:46:55.108Z,8.30
2018-01-27T19:49:21.399Z,14.10
2018-01-27T19:51:48.448Z,12.73
2018-01-27T19:54:15.473Z,11.90
2018-01-27T19:56:41.732Z,12.77
2018-01-27T19:59:08.037Z,13.60
2018-01-27T20:01:34.337Z,12.80
2018-01-27T20:04:00.627Z,12.17
2018-01-27T20:06:26.887Z,14.67
2018-01-27T20:08:53.177Z,12.80
2018-01-27T20:11:19.448Z,12.23
2018-01-27T20:13:45.751Z,12.93
2018-01-27T20:16:12.012Z,11.97
2018-01-27T20:18:38.295Z,14.10
2018-01-27T20:21:04.604Z,13.10
2018-01-27T20:23:30.952Z,12.17
2018-01-27T20:25:57.219Z,12.00
2018-01-27T20:28:23.523Z,12.37
2018-01-27T20:30:49.787Z,13.17
2018-01-27T20:33:16.816Z,12.43
2018-01-27T20:35:43.109Z,12.73
2018-01-27T20:38:10.172Z,11.47
2018-01-27T20:40:36.453Z,14.30
2018-01-27T20:45:39.412Z,13.40
2018-01-27T20:48:05.712Z,11.73
2018-01-27T20:50:32.740Z,11.53
2018-01-27T20:52:59.067Z,12.23
2018-01-27T20:55:25.328Z,11.07
2018-01-27T20:57:52.359Z,12.03
2018-01-27T21:00:18.642Z,9.83
2018-01-27T21:02:44.993Z,11.13
2018-01-27T21:05:11.264Z,11.60
2018-01-27T21:07:38.296Z,11.93
2018-01-27T21:10:04.569Z,10.80
2018-01-27T21:12:30.900Z,10.17
2018-01-27T21:14:57.170Z,9.60
2018-01-27T21:17:23.431Z,6.10
2018-01-27T21:19:50.467Z,9.20
2018-01-27T21:22:17.487Z,9.33
2018-01-27T21:24:43.775Z,8.17
2018-01-27T21:27:10.530Z,9.03
2018-01-27T21:29:36.874Z,8.00
2018-01-27T21:32:03.174Z,8.70
2018-01-27T21:34:29.568Z,8.63
2018-01-27T21:36:55.945Z,7.13
2018-01-27T21:39:22.340Z,8.70
2018-01-27T21:41:49.472Z,9.20
2018-01-27T21:44:15.831Z,8.63
2018-01-27T21:46:42.895Z,5.83
2018-01-27T21:49:09.239Z,8.80
2018-01-27T21:51:35.567Z,8.23
2018-01-27T21:54:01.944Z,8.13
2018-01-27T21:56:28.267Z,9.23
2018-01-27T21:58:54.624Z,7.47
2018-01-27T22:01:21.667Z,8.60
2018-01-27T22:03:48.042Z,7.50
2018-01-27T22:06:14.356Z,6.90
2018-01-27T22:08:40.640Z,6.67
2018-01-27T22:11:06.957Z,6.63
2018-01-27T22:13:33.319Z,7.87
2018-01-27T22:15:59.668Z,6.27
2018-01-27T22:18:26.728Z,6.63
2018-01-27T22:20:53.052Z,7.00
2018-01-27T22:23:20.129Z,6.33
2018-01-27T22:25:46.484Z,4.50
2018-01-27T22:28:12.815Z,6.03
2018-01-27T22:30:39.147Z,5.90
2018-01-27T22:33:05.520Z,6.60
2018-01-27T22:35:32.549Z,6.20
2018-01-27T22:37:59.634Z,5.60
2018-01-27T22:40:25.953Z,5.20
2018-01-27T22:42:53.055Z,4.10
2018-01-27T22:45:19.371Z,5.03
2018-01-27T22:47:45.744Z,4.47
2018-01-27T22:50:12.759Z,4.80
2018-01-27T22:52:39.024Z,5.30
2018-01-27T22:55:06.087Z,5.23
2018-01-27T22:57:32.444Z,4.77
2018-01-27T22:59:58.784Z,4.20
2018-01-27T23:02:25.104Z,4.30
2018-01-27T23:04:51.388Z,3.50
2018-01-27T23:07:18.408Z,3.37
2018-01-27T23:09:44.768Z,3.90
2018-01-27T23:12:11.803Z,4.60
2018-01-27T23:14:38.547Z,4.10
2018-01-27T23:17:04.915Z,4.00
2018-01-27T23:19:31.195Z,4.13
2018-01-27T23:21:57.513Z,3.83
2018-01-27T23:24:23.986Z,3.43
2018-01-27T23:26:51.008Z,2.43
2018-01-27T23:29:17.279Z,3.97
2018-01-27T23:31:43.604Z,2.50
2018-01-27T23:34:10.684Z,3.70
2018-01-27T23:36:37.036Z,2.80
2018-01-27T23:39:03.417Z,3.97
2018-01-27T23:41:29.716Z,4.77
2018-01-27T23:43:56.790Z,4.00
2018-01-27T23:46:23.817Z,2.37
2018-01-27T23:48:50.196Z,2.73
2018-01-27T23:51:16.510Z,3.90
2018-01-27T23:53:42.900Z,3.70
2018-01-27T23:56:09.168Z,3.30
2018-01-27T23:58:35.577Z,3.47
